createdAt,value
2023-01-01T00:00:19.180Z,9.20
2023-01-01T00:02:48.080Z,7.37
2023-01-01T00:05:14.913Z,7.75
2023-01-01T00:07:42.119Z,6.67
2023-01-01T00:10:29.212Z,5.68
2023-01-01T00:13:00.112Z,6.73
2023-01-01T00:15:28.094Z,8.73
2023-01-01T00:17:55.318Z,8.30
2023-01-01T00:20:22.680Z,6.80
2023-01-01T00:22:57.043Z,7.10
2023-01-01T00:25:25.092Z,6.20
2023-01-01T00:27:52.115Z,7.30
2023-01-01T00:30:19.581Z,7.03
2023-01-01T00:32:54.562Z,9.90
2023-01-01T00:35:24.668Z,6.67
2023-01-01T00:37:51.594Z,6.93
2023-01-01T00:40:18.859Z,6.07
2023-01-01T00:42:45.807Z,7.90
2023-01-01T00:45:18.745Z,8.50
2023-01-01T00:47:48.239Z,6.67
2023-01-01T00:50:15.202Z,6.82
2023-01-01T00:52:42.097Z,8.07
2023-01-01T00:55:09.426Z,8.32
2023-01-01T00:57:36.313Z,9.07
2023-01-01T01:00:05.359Z,8.37
2023-01-01T01:02:32.418Z,7.50
2023-01-01T01:04:59.375Z,8.50
2023-01-01T01:07:26.204Z,9.40
2023-01-01T01:09:53.055Z,8.57
2023-01-01T01:12:19.861Z,7.47
2023-01-01T01:14:47.332Z,6.97
2023-01-01T01:17:14.225Z,6.47
2023-01-01T01:19:41.028Z,8.07
2023-01-01T01:22:07.842Z,6.22
2023-01-01T01:24:34.634Z,8.02
2023-01-01T01:27:01.581Z,9.15
2023-01-01T01:29:28.440Z,6.33
2023-01-01T01:31:55.254Z,8.30
2023-01-01T01:34:27.522Z,7.87
2023-01-01T01:36:55.415Z,9.50
2023-01-01T01:39:22.562Z,8.60
2023-01-01T01:41:49.764Z,8.20
2023-01-01T01:44:47.625Z,8.10
2023-01-01T01:47:29.615Z,8.02
2023-01-01T01:50:03.192Z,11.60
2023-01-01T01:52:32.918Z,10.20
2023-01-01T01:55:02.253Z,8.00
2023-01-01T01:57:29.842Z,7.70
2023-01-01T01:59:58.391Z,8.27
2023-01-01T02:02:51.053Z,9.07
2023-01-01T02:05:19.589Z,6.90
2023-01-01T02:07:46.874Z,8.20
2023-01-01T02:10:13.795Z,8.98
2023-01-01T02:12:40.704Z,8.77
2023-01-01T02:15:09.472Z,5.93
2023-01-01T02:18:13.490Z,8.20
2023-01-01T02:20:49.323Z,8.60
2023-01-01T02:23:34.445Z,6.60
2023-01-01T02:26:38.799Z,8.85
2023-01-01T02:29:10.516Z,6.88
2023-01-01T02:31:44.524Z,7.22
2023-01-01T02:34:15.447Z,5.83
2023-01-01T02:36:48.646Z,6.63
2023-01-01T02:39:16.742Z,4.37
2023-01-01T02:41:46.975Z,6.70
2023-01-01T02:44:14.120Z,5.30
2023-01-01T02:46:41.404Z,6.00
2023-01-01T02:49:10.817Z,5.28
2023-01-01T02:51:58.916Z,7.55
2023-01-01T02:54:41.000Z,6.27
2023-01-01T02:57:33.504Z,5.67
2023-01-01T03:00:25.208Z,5.63
2023-01-01T03:03:17.997Z,9.90
2023-01-01T03:06:12.373Z,5.90
2023-01-01T03:09:13.160Z,6.73
2023-01-01T03:12:25.457Z,7.30
2023-01-01T03:15:06.430Z,5.57
2023-01-01T03:17:38.327Z,5.13
2023-01-01T03:20:12.099Z,6.63
2023-01-01T03:25:12.138Z,7.13
2023-01-01T03:27:50.195Z,5.15
2023-01-01T03:30:23.052Z,6.00
2023-01-01T03:33:07.982Z,6.75
2023-01-01T03:35:47.267Z,6.10
2023-01-01T03:38:30.825Z,5.73
2023-01-01T03:41:04.942Z,6.50
2023-01-01T03:43:31.970Z,6.37
2023-01-01T03:46:00.924Z,5.70
2023-01-01T03:48:49.975Z,7.27
2023-01-01T03:51:42.282Z,5.13
2023-01-01T03:54:20.561Z,5.30
2023-01-01T03:57:01.905Z,8.73
2023-01-01T03:59:36.673Z,4.77
2023-01-01T04:02:07.695Z,6.60
2023-01-01T04:04:35.576Z,6.20
2023-01-01T04:07:14.904Z,5.50
2023-01-01T04:09:48.942Z,5.90
2023-01-01T04:12:18.156Z,8.20
2023-01-01T04:14:45.304Z,4.50
2023-01-01T04:17:13.797Z,7.20
2023-01-01T04:19:40.806Z,4.53
2023-01-01T04:22:08.758Z,5.50
2023-01-01T04:24:35.689Z,6.87
2023-01-01T04:27:02.882Z,5.63
2023-01-01T04:29:29.891Z,7.15
2023-01-01T04:31:58.290Z,5.27
2023-01-01T04:34:25.202Z,6.63
2023-01-01T04:36:52.317Z,5.83
2023-01-01T04:39:19.424Z,5.73
2023-01-01T04:41:48.001Z,7.03
2023-01-01T04:44:14.970Z,8.73
2023-01-01T04:46:42.638Z,5.10
2023-01-01T04:49:09.602Z,5.67
2023-01-01T04:51:37.351Z,5.45
2023-01-01T04:54:04.735Z,6.30
2023-01-01T04:56:31.806Z,5.40
2023-01-01T04:58:58.730Z,8.27
2023-01-01T05:01:29.035Z,5.55
2023-01-01T05:03:58.113Z,5.27
2023-01-01T05:06:25.882Z,6.00
2023-01-01T05:08:57.106Z,5.28
2023-01-01T05:11:26.800Z,6.53
2023-01-01T05:13:55.408Z,4.70
2023-01-01T05:16:25.345Z,6.70
2023-01-01T05:18:52.953Z,4.63
2023-01-01T05:21:28.668Z,4.20
2023-01-01T05:24:03.750Z,3.40
2023-01-01T05:26:36.168Z,5.57
2023-01-01T05:29:04.012Z,4.40
2023-01-01T05:31:34.375Z,5.17
2023-01-01T05:36:31.056Z,5.03
2023-01-01T05:38:58.738Z,4.60
2023-01-01T05:41:26.347Z,6.10
2023-01-01T05:43:53.667Z,5.97
2023-01-01T05:46:23.530Z,5.57
2023-01-01T05:48:52.611Z,5.47
2023-01-01T05:51:22.058Z,5.93
2023-01-01T05:53:50.656Z,6.40
2023-01-01T05:56:18.650Z,5.37
2023-01-01T05:58:47.432Z,6.63
2023-01-01T06:01:20.504Z,6.00
2023-01-01T06:03:49.060Z,5.77
2023-01-01T06:06:21.586Z,5.03
2023-01-01T06:08:59.884Z,6.33
2023-01-01T06:11:27.744Z,5.20
2023-01-01T06:13:56.416Z,7.87
2023-01-01T06:16:24.600Z,5.60
2023-01-01T06:18:51.607Z,10.03
2023-01-01T06:21:21.244Z,6.57
2023-01-01T06:23:48.572Z,4.33
2023-01-01T06:26:18.200Z,7.40
2023-01-01T06:28:47.170Z,7.97
2023-01-01T06:31:16.522Z,5.50
2023-01-01T06:33:44.307Z,5.13
2023-01-01T06:36:13.572Z,5.57
2023-01-01T06:38:44.552Z,4.37
2023-01-01T06:41:14.818Z,6.60
2023-01-01T06:43:42.092Z,5.83
2023-01-01T06:46:19.286Z,5.27
2023-01-01T06:48:47.900Z,5.13
2023-01-01T06:51:17.203Z,4.23
2023-01-01T06:53:44.172Z,3.73
2023-01-01T06:56:11.605Z,5.77
2023-01-01T06:58:39.072Z,5.47
2023-01-01T07:01:13.086Z,5.03
2023-01-01T07:03:41.125Z,7.47
2023-01-01T07:06:09.053Z,7.37
2023-01-01T07:08:36.257Z,4.90
2023-01-01T07:11:03.972Z,6.20
2023-01-01T07:13:31.477Z,5.85
2023-01-01T07:15:58.663Z,5.33
2023-01-01T07:18:26.313Z,9.70
2023-01-01T07:20:58.487Z,5.80
2023-01-01T07:23:26.671Z,4.97
2023-01-01T07:25:54.629Z,6.50
2023-01-01T07:28:22.890Z,6.63
2023-01-01T07:30:50.244Z,6.43
2023-01-01T07:33:19.362Z,8.17
2023-01-01T07:35:46.443Z,6.77
2023-01-01T07:38:14.040Z,7.13
2023-01-01T07:40:41.605Z,7.65
2023-01-01T07:43:09.090Z,6.63
2023-01-01T07:45:36.329Z,7.60
2023-01-01T07:48:03.467Z,6.25
2023-01-01T07:50:32.488Z,7.53
2023-01-01T07:52:59.581Z,9.90
2023-01-01T07:55:27.399Z,7.35
2023-01-01T07:57:54.375Z,6.30
2023-01-01T08:00:22.087Z,5.20
2023-01-01T08:02:49.562Z,8.55
2023-01-01T08:05:19.939Z,13.98
2023-01-01T08:07:49.850Z,7.85
2023-01-01T08:10:20.328Z,7.38
2023-01-01T08:12:47.874Z,6.00
2023-01-01T08:15:15.771Z,8.13
2023-01-01T08:17:46.917Z,5.85
2023-01-01T08:20:14.891Z,11.20
2023-01-01T08:22:41.898Z,10.32
2023-01-01T08:25:09.401Z,7.20
2023-01-01T08:27:38.185Z,10.80
2023-01-01T08:30:05.758Z,11.07
2023-01-01T08:32:32.650Z,7.00
2023-01-01T08:34:59.763Z,6.90
2023-01-01T08:37:26.639Z,7.65
2023-01-01T08:39:54.762Z,7.30
2023-01-01T08:42:21.853Z,6.68
2023-01-01T08:58:07.684Z,7.63
2023-01-01T09:00:34.540Z,7.82
2023-01-01T09:03:01.500Z,10.48
2023-01-01T09:05:28.404Z,10.63
2023-01-01T09:07:55.189Z,9.23
2023-01-01T09:10:21.973Z,6.20
2023-01-01T09:12:48.750Z,8.95
2023-01-01T09:15:17.082Z,5.35
2023-01-01T09:17:44.025Z,5.07
2023-01-01T09:20:11.039Z,10.35
2023-01-01T09:22:37.889Z,9.50
2023-01-01T09:25:05.033Z,9.13
2023-01-01T09:27:31.856Z,5.80
2023-01-01T09:29:58.743Z,6.05
2023-01-01T09:32:25.752Z,5.82
2023-01-01T09:34:52.795Z,7.88
2023-01-01T09:37:19.754Z,10.80
2023-01-01T09:39:46.880Z,7.35
2023-01-01T09:42:37.969Z,6.05
2023-01-01T09:45:21.266Z,6.70
2023-01-01T09:47:54.394Z,10.32
2023-01-01T09:50:29.735Z,9.93
2023-01-01T09:53:04.719Z,7.28
2023-01-01T09:55:55.433Z,7.15
2023-01-01T09:58:26.379Z,7.63
2023-01-01T10:00:56.375Z,7.13
2023-01-01T10:03:39.464Z,6.22
2023-01-01T10:06:30.340Z,10.25
2023-01-01T10:09:18.055Z,8.52
2023-01-01T10:11:56.370Z,6.65
2023-01-01T10:14:26.195Z,12.55
2023-01-01T10:16:56.075Z,8.30
2023-01-01T10:19:43.479Z,7.05
2023-01-01T10:22:22.992Z,9.40
2023-01-01T10:25:04.363Z,8.50
2023-01-01T10:28:06.410Z,8.25
2023-01-01T10:30:33.353Z,8.80
2023-01-01T10:33:00.461Z,8.90
2023-01-01T10:35:56.163Z,6.60
2023-01-01T10:38:25.556Z,6.28
2023-01-01T10:41:02.854Z,6.53
2023-01-01T10:43:29.732Z,10.18
2023-01-01T10:45:57.136Z,8.07
2023-01-01T10:48:26.554Z,6.63
2023-01-01T10:51:02.052Z,9.63
2023-01-01T10:53:36.132Z,10.23
2023-01-01T10:56:17.930Z,7.18
2023-01-01T10:58:44.790Z,5.00
2023-01-01T11:01:34.431Z,8.23
2023-01-01T11:04:19.510Z,8.95
2023-01-01T11:06:47.692Z,9.48
2023-01-01T11:09:27.388Z,7.10
2023-01-01T11:12:15.350Z,6.55
2023-01-01T11:14:56.644Z,9.55
2023-01-01T11:17:30.144Z,6.82
2023-01-01T11:20:01.986Z,6.60
2023-01-01T11:22:41.870Z,4.18
2023-01-01T11:25:22.518Z,8.77
2023-01-01T11:27:50.488Z,7.55
2023-01-01T11:30:27.834Z,8.68
2023-01-01T11:33:03.148Z,6.47
2023-01-01T11:35:33.537Z,6.00
2023-01-01T11:38:00.474Z,6.88
2023-01-01T11:40:38.161Z,8.43
2023-01-01T11:43:07.329Z,12.20
2023-01-01T11:45:38.563Z,7.07
2023-01-01T11:48:24.063Z,6.20
2023-01-01T11:50:57.508Z,7.15
2023-01-01T11:53:27.020Z,8.07
2023-01-01T11:56:13.819Z,5.75
2023-01-01T11:58:57.923Z,9.65
2023-01-01T12:01:47.126Z,5.63
2023-01-01T12:04:13.997Z,6.55
2023-01-01T12:07:06.442Z,9.55
2023-01-01T12:09:42.812Z,6.15
2023-01-01T12:12:27.613Z,9.98
2023-01-01T12:15:14.318Z,12.02
2023-01-01T12:17:49.994Z,7.40
2023-01-01T12:20:22.791Z,8.27
2023-01-01T12:22:49.859Z,6.03
2023-01-01T12:25:19.623Z,9.88
2023-01-01T12:28:28.645Z,5.88
2023-01-01T12:31:22.999Z,5.75
2023-01-01T12:34:05.677Z,8.68
2023-01-01T12:36:53.942Z,8.00
2023-01-01T12:39:35.995Z,9.30
2023-01-01T12:42:36.109Z,5.75
2023-01-01T12:45:46.252Z,8.02
2023-01-01T12:48:36.623Z,7.55
2023-01-01T12:51:38.359Z,7.53
2023-01-01T12:54:35.574Z,5.78
2023-01-01T12:57:31.237Z,6.85
2023-01-01T13:00:01.983Z,5.90
2023-01-01T13:02:33.490Z,7.30
2023-01-01T13:05:13.610Z,6.35
2023-01-01T13:07:43.633Z,10.25
2023-01-01T13:10:34.393Z,4.93
2023-01-01T13:13:02.704Z,10.68
2023-01-01T13:15:48.648Z,6.80
2023-01-01T13:18:15.579Z,6.22
2023-01-01T13:20:54.227Z,6.90
2023-01-01T13:23:43.193Z,6.07
2023-01-01T13:26:21.654Z,7.72
2023-01-01T13:28:57.406Z,9.57
2023-01-01T13:31:39.815Z,7.22
2023-01-01T13:34:31.553Z,8.18
2023-01-01T13:37:10.848Z,8.48
2023-01-01T13:40:06.752Z,7.97
2023-01-01T13:43:02.340Z,6.57
2023-01-01T13:49:01.707Z,7.75
2023-01-01T13:52:08.504Z,10.43
2023-01-01T13:55:20.461Z,7.53
2023-01-01T13:58:02.276Z,9.80
2023-01-01T14:01:01.330Z,8.40
2023-01-01T14:03:29.172Z,8.18
2023-01-01T14:05:59.801Z,7.75
2023-01-01T14:08:35.248Z,9.85
2023-01-01T14:11:03.321Z,8.50
2023-01-01T14:13:39.439Z,9.05
2023-01-01T14:16:10.983Z,6.32
2023-01-01T14:18:47.606Z,7.35
2023-01-01T14:21:23.428Z,10.85
2023-01-01T14:23:59.539Z,7.50
2023-01-01T14:26:28.316Z,7.43
2023-01-01T14:29:07.775Z,7.70
2023-01-01T14:31:40.341Z,11.68
2023-01-01T14:34:30.141Z,11.18
2023-01-01T14:37:02.494Z,6.03
2023-01-01T14:39:34.399Z,14.70
2023-01-01T14:42:13.604Z,10.10
2023-01-01T14:44:43.481Z,10.75
2023-01-01T14:47:27.802Z,11.27
2023-01-01T14:50:00.910Z,8.55
2023-01-01T14:52:31.283Z,9.27
2023-01-01T14:55:00.535Z,10.90
2023-01-01T14:57:30.980Z,8.98
2023-01-01T14:59:58.109Z,8.23
2023-01-01T15:02:29.224Z,8.40
2023-01-01T15:04:57.978Z,11.55
2023-01-01T15:07:30.441Z,8.13
2023-01-01T15:10:02.358Z,11.65
2023-01-01T15:12:30.844Z,7.60
2023-01-01T15:14:58.252Z,9.27
2023-01-01T15:17:26.194Z,8.25
2023-01-01T15:20:17.341Z,6.90
2023-01-01T15:22:44.597Z,7.53
2023-01-01T15:25:16.187Z,11.07
2023-01-01T15:27:44.486Z,7.38
2023-01-01T15:30:30.612Z,6.70
2023-01-01T15:33:09.237Z,7.28
2023-01-01T15:35:38.138Z,5.78
2023-01-01T15:38:15.909Z,8.80
2023-01-01T15:40:49.435Z,7.45
2023-01-01T15:43:29.633Z,7.03
2023-01-01T15:45:58.820Z,8.27
2023-01-01T15:48:31.734Z,10.25
2023-01-01T15:51:14.072Z,7.28
2023-01-01T15:54:04.882Z,11.82
2023-01-01T15:56:34.021Z,10.00
2023-01-01T15:59:09.201Z,8.85
2023-01-01T16:01:40.494Z,7.75
2023-01-01T16:04:11.395Z,8.73
2023-01-01T16:06:46.727Z,9.93
2023-01-01T16:09:15.010Z,8.07
2023-01-01T16:11:42.475Z,10.95
2023-01-01T16:14:09.508Z,12.48
2023-01-01T16:16:38.963Z,10.57
2023-01-01T16:19:06.305Z,8.98
2023-01-01T16:21:33.841Z,9.68
2023-01-01T16:24:01.026Z,9.18
2023-01-01T16:26:27.944Z,10.07
2023-01-01T16:28:54.751Z,8.32
2023-01-01T16:31:28.846Z,13.00
2023-01-01T16:33:57.706Z,11.27
2023-01-01T16:36:27.455Z,9.18
2023-01-01T16:38:54.525Z,9.05
2023-01-01T16:41:21.611Z,11.63
2023-01-01T16:43:48.703Z,13.70
2023-01-01T16:46:15.647Z,9.20
2023-01-01T16:48:43.010Z,9.65
2023-01-01T16:51:25.689Z,10.82
2023-01-01T16:53:52.530Z,10.27
2023-01-01T16:56:19.359Z,10.23
2023-01-01T16:58:50.038Z,12.48
2023-01-01T17:01:17.555Z,10.15
2023-01-01T17:03:44.535Z,11.37
2023-01-01T17:06:11.809Z,12.82
2023-01-01T17:08:39.622Z,11.43
2023-01-01T17:11:10.905Z,13.60
2023-01-01T17:13:37.715Z,13.13
2023-01-01T17:16:08.955Z,10.97
2023-01-01T17:21:23.385Z,14.63
2023-01-01T17:23:50.394Z,15.07
2023-01-01T17:26:22.774Z,11.63
2023-01-01T17:28:58.034Z,21.77
2023-01-01T17:31:28.635Z,20.87
2023-01-01T17:33:55.792Z,55.37
2023-01-01T17:36:22.742Z,50.22
2023-01-01T17:38:49.644Z,38.63
2023-01-01T17:41:17.777Z,28.57
2023-01-01T17:43:47.496Z,18.40
2023-01-01T17:46:21.073Z,15.23
2023-01-01T17:48:48.667Z,15.20
2023-01-01T17:51:17.216Z,18.47
2023-01-01T17:53:44.210Z,16.03
2023-01-01T17:56:13.609Z,15.07
2023-01-01T17:58:41.597Z,26.55
2023-01-01T18:01:11.380Z,26.90
2023-01-01T18:03:40.276Z,26.75
2023-01-01T18:06:07.969Z,27.10
2023-01-01T18:08:34.797Z,23.50
2023-01-01T18:11:01.667Z,20.25
2023-01-01T18:13:28.588Z,37.43
2023-01-01T18:16:00.389Z,35.20
2023-01-01T18:18:28.208Z,15.73
2023-01-01T18:21:05.013Z,11.70
2023-01-01T18:23:33.470Z,14.57
2023-01-01T18:26:02.298Z,30.20
2023-01-01T18:28:29.713Z,33.95
2023-01-01T18:31:03.733Z,29.30
2023-01-01T18:33:30.701Z,19.45
2023-01-01T18:35:57.845Z,19.63
2023-01-01T18:38:25.789Z,26.23
2023-01-01T18:41:02.805Z,21.23
2023-01-01T18:43:29.611Z,21.40
2023-01-01T18:45:57.297Z,21.10
2023-01-01T18:48:24.178Z,19.73
2023-01-01T18:50:50.967Z,16.63
2023-01-01T18:53:22.256Z,18.27
2023-01-01T18:56:12.310Z,16.63
2023-01-01T18:58:41.751Z,18.23
2023-01-01T19:01:21.425Z,16.30
2023-01-01T19:03:55.667Z,15.20
2023-01-01T19:06:32.834Z,14.80
2023-01-01T19:09:08.403Z,14.53
2023-01-01T19:11:38.166Z,15.93
2023-01-01T19:14:18.256Z,15.80
2023-01-01T19:16:46.693Z,13.83
2023-01-01T19:19:24.424Z,14.80
2023-01-01T19:21:55.456Z,16.37
2023-01-01T19:24:27.451Z,14.13
2023-01-01T19:27:02.692Z,15.80
2023-01-01T19:29:31.003Z,19.47
2023-01-01T19:31:58.623Z,17.03
2023-01-01T19:34:26.402Z,19.00
2023-01-01T19:36:53.709Z,30.20
2023-01-01T19:39:20.519Z,25.70
2023-01-01T19:41:47.751Z,19.73
2023-01-01T19:44:18.527Z,16.10
2023-01-01T19:46:48.649Z,16.03
2023-01-01T19:49:16.656Z,17.67
2023-01-01T19:51:44.019Z,15.70
2023-01-01T19:54:10.919Z,15.97
2023-01-01T19:56:37.778Z,13.95
2023-01-01T19:59:04.633Z,15.87
2023-01-01T20:01:31.523Z,17.27
2023-01-01T20:03:58.893Z,17.40
2023-01-01T20:06:26.894Z,18.60
2023-01-01T20:08:54.994Z,15.73
2023-01-01T20:11:22.615Z,15.27
2023-01-01T20:13:50.779Z,15.27
2023-01-01T20:16:17.841Z,17.03
2023-01-01T20:18:45.848Z,19.97
2023-01-01T20:21:38.873Z,20.47
2023-01-01T20:24:06.259Z,29.97
2023-01-01T20:26:35.324Z,26.63
2023-01-01T20:29:21.674Z,24.83
2023-01-01T20:31:51.311Z,20.30
2023-01-01T20:34:30.324Z,17.67
2023-01-01T20:37:15.865Z,21.87
2023-01-01T20:39:43.957Z,19.97
2023-01-01T20:42:11.019Z,20.57
2023-01-01T20:44:37.891Z,17.03
2023-01-01T20:47:05.095Z,17.50
2023-01-01T20:49:32.255Z,18.63
2023-01-01T20:51:59.377Z,18.23
2023-01-01T20:54:32.134Z,14.30
2023-01-01T20:56:59.323Z,17.37
2023-01-01T20:59:41.714Z,17.03
2023-01-01T21:02:11.907Z,13.90
2023-01-01T21:04:41.257Z,15.57
2023-01-01T21:07:12.217Z,14.40
2023-01-01T21:09:42.234Z,18.03
2023-01-01T21:12:09.705Z,18.60
2023-01-01T21:14:38.761Z,15.50
2023-01-01T21:17:23.457Z,13.67
2023-01-01T21:19:53.811Z,14.60
2023-01-01T21:22:20.838Z,12.30
2023-01-01T21:24:54.517Z,11.97
2023-01-01T21:27:34.107Z,15.07
2023-01-01T21:30:01.693Z,14.37
2023-01-01T21:32:40.851Z,13.00
2023-01-01T21:35:18.365Z,17.13
2023-01-01T21:37:48.304Z,14.80
2023-01-01T21:40:37.955Z,13.00
2023-01-01T21:43:25.723Z,18.70
2023-01-01T21:45:56.698Z,15.07
2023-01-01T21:48:33.727Z,14.87
2023-01-01T21:51:01.927Z,14.17
2023-01-01T21:53:36.429Z,16.57
2023-01-01T21:56:23.042Z,12.63
2023-01-01T21:59:08.489Z,14.83
2023-01-01T22:01:44.573Z,13.40
2023-01-01T22:04:11.801Z,13.67
2023-01-01T22:06:52.162Z,15.47
2023-01-01T22:09:43.503Z,15.57
2023-01-01T22:12:13.307Z,13.40
2023-01-01T22:14:45.220Z,15.33
2023-01-01T22:17:36.788Z,16.50
2023-01-01T22:20:19.705Z,14.07
2023-01-01T22:22:46.880Z,15.23
2023-01-01T22:25:29.508Z,16.67
2023-01-01T22:27:57.155Z,11.07
2023-01-01T22:30:43.056Z,13.73
2023-01-01T22:33:38.169Z,16.77
2023-01-01T22:36:33.866Z,18.50
2023-01-01T22:39:03.223Z,16.13
2023-01-01T22:41:31.285Z,16.47
2023-01-01T22:44:03.390Z,15.47
2023-01-01T22:46:36.222Z,16.07
2023-01-01T22:49:30.390Z,16.23
2023-01-01T22:51:58.517Z,14.47
2023-01-01T22:54:25.479Z,16.83
2023-01-01T22:56:52.361Z,12.37
2023-01-01T22:59:19.485Z,15.47
2023-01-01T23:01:48.480Z,15.23
2023-01-01T23:04:16.261Z,16.10
2023-01-01T23:06:43.435Z,12.57
2023-01-01T23:09:12.106Z,12.30
2023-01-01T23:11:39.669Z,16.60
2023-01-01T23:14:25.269Z,14.20
2023-01-01T23:16:52.197Z,14.40
2023-01-01T23:19:19.117Z,14.37
2023-01-01T23:21:46.689Z,14.10
2023-01-01T23:24:20.308Z,17.23
2023-01-01T23:26:48.573Z,15.00
2023-01-01T23:29:19.606Z,12.37
2023-01-01T23:31:47.806Z,12.80
2023-01-01T23:34:17.102Z,13.73
2023-01-01T23:36:44.949Z,17.77
2023-01-01T23:39:12.029Z,14.13
2023-01-01T23:41:39.982Z,15.17
2023-01-01T23:44:09.074Z,14.63
2023-01-01T23:46:39.272Z,15.37
2023-01-01T23:49:07.046Z,15.13
2023-01-01T23:51:34.555Z,14.40
2023-01-01T23:54:02.548Z,13.70
2023-01-01T23:56:29.405Z,16.30
2023-01-01T23:58:56.620Z,14.63
